Time;durP1;ratioP1;P1;durP2;ratioP2;P2;SDS_P1;SDS_P2;PMS_P1;PMS_P2;Temp;Humidity;BMP_temperature;BMP_pressure;BME280_temperature;BME280_humidity;BME280_pressure;Samples;Min_cycle;Max_cycle;Signal;HPM_P1;HPM_P2
2023/01/13 00:00:26;;;;;;;2.40;1.73;;;;;;;4.55;100.00;96716.22;5039392;28;20463;-73
2023/01/13 00:02:54;;;;;;;3.23;1.53;;;;;;;4.55;100.00;96714.41;5030317;28;20225;-71
2023/01/13 00:05:22;;;;;;;1.70;1.60;;;;;;;4.55;100.00;96716.22;5027658;28;20207;-71
2023/01/13 00:07:49;;;;;;;2.20;1.80;;;;;;;4.58;100.00;96708.84;5042742;28;20585;-70
2023/01/13 00:10:19;;;;;;;4.43;1.87;;;;;;;4.74;100.00;96707.25;4995725;28;20636;-71
2023/01/13 00:12:46;;;;;;;1.60;1.50;;;;;;;4.74;100.00;96704.63;5049437;28;20222;-72
2023/01/13 00:15:14;;;;;;;1.90;1.70;;;;;;;4.75;100.00;96711.53;4995163;28;20222;-72
2023/01/13 00:17:42;;;;;;;2.30;1.70;;;;;;;4.75;100.00;96706.28;5041592;28;20320;-71
2023/01/13 00:20:11;;;;;;;1.77;1.43;;;;;;;4.78;100.00;96708.59;5048922;28;20236;-71
2023/01/13 00:22:38;;;;;;;7.70;6.90;;;;;;;4.74;100.00;96694.16;5040044;28;20215;-71
2023/01/13 00:25:06;;;;;;;5.10;3.40;;;;;;;4.86;100.00;96710.41;5036573;28;20582;-71
2023/01/13 00:27:36;;;;;;;3.37;1.73;;;;;;;4.87;100.00;96704.16;5042108;28;20682;-72
2023/01/13 00:30:05;;;;;;;2.20;1.90;;;;;;;4.87;100.00;96707.63;4987257;28;20443;-72
2023/01/13 00:32:32;;;;;;;1.97;1.87;;;;;;;4.86;100.00;96703.34;5037097;28;20207;-71
2023/01/13 00:35:00;;;;;;;1.50;1.40;;;;;;;4.93;100.00;96696.47;5048152;28;20539;-73
2023/01/13 00:37:28;;;;;;;3.03;1.80;;;;;;;4.94;100.00;96699.94;5037260;28;20469;-72
2023/01/13 00:39:56;;;;;;;1.77;1.30;;;;;;;4.98;100.00;96703.06;5043314;28;20233;-72
2023/01/13 00:45:11;;;;;;;1.40;1.37;;;;;;;4.92;100.00;96681.72;5000840;28;20234;-72
2023/01/13 00:47:39;;;;;;;2.50;1.83;;;;;;;4.97;100.00;96678.63;5038134;28;20214;-71
2023/01/13 00:50:08;;;;;;;1.63;1.53;;;;;;;5.03;100.00;96682.38;5046714;28;20468;-73
2023/01/13 00:52:35;;;;;;;1.37;1.27;;;;;;;5.04;100.00;96679.59;5044799;28;20294;-71
2023/01/13 00:55:03;;;;;;;3.37;2.33;;;;;;;5.02;100.00;96676.31;5030408;28;20401;-71
2023/01/13 00:57:31;;;;;;;1.47;1.13;;;;;;;5.05;100.00;96665.50;5039254;28;20548;-71
2023/01/13 00:59:59;;;;;;;1.40;1.30;;;;;;;5.03;100.00;96656.13;5002523;28;20838;-71
2023/01/13 01:02:28;;;;;;;2.80;1.40;;;;;;;5.08;100.00;96656.47;5045183;28;20241;-71
2023/01/13 01:04:55;;;;;;;3.33;1.50;;;;;;;5.07;100.00;96649.56;5046327;28;20406;-72
2023/01/13 01:07:23;;;;;;;1.33;1.20;;;;;;;5.07;100.00;96655.66;5047244;28;20469;-72
2023/01/13 01:09:51;;;;;;;1.53;1.30;;;;;;;5.11;100.00;96658.75;5038891;28;20448;-72
2023/01/13 01:12:19;;;;;;;2.20;1.80;;;;;;;5.10;100.00;96657.13;5049890;28;20207;-71
2023/01/13 01:14:46;;;;;;;1.40;1.40;;;;;;;5.11;100.00;96652.69;5041906;28;20638;-70
2023/01/13 01:17:14;;;;;;;1.40;1.30;;;;;;;5.12;100.00;96652.56;4994060;28;20207;-73
2023/01/13 01:19:43;;;;;;;1.80;1.70;;;;;;;5.19;100.00;96650.06;5042802;28;20274;-71
2023/01/13 01:22:11;;;;;;;2.40;1.40;;;;;;;5.11;100.00;96637.75;5044567;28;20230;-72
2023/01/13 01:24:38;;;;;;;1.50;1.33;;;;;;;5.09;100.00;96631.03;5043616;28;20199;-71
2023/01/13 01:27:06;;;;;;;2.47;1.83;;;;;;;5.13;100.00;96638.44;5047756;28;20199;-71
2023/01/13 01:29:34;;;;;;;1.27;1.27;;;;;;;5.20;100.00;96639.41;5039531;28;20231;-71
2023/01/13 01:32:02;;;;;;;1.30;1.30;;;;;;;5.20;100.00;96647.31;4992900;28;20214;-70
2023/01/13 01:34:30;;;;;;;1.00;1.00;;;;;;;5.11;100.00;96644.81;5045977;28;20203;-72
2023/01/13 01:36:59;;;;;;;2.43;1.53;;;;;;;5.00;100.00;96638.91;5035981;28;20206;-73
2023/01/13 01:39:27;;;;;;;1.50;1.40;;;;;;;5.02;100.00;96633.47;5035998;28;20568;-73
2023/01/13 01:45:00;;;;;;;5.20;1.77;;;;;;;4.76;100.00;96630.00;5031092;28;20256;-71
2023/01/13 01:47:28;;;;;;;2.90;2.67;;;;;;;4.77;100.00;96631.63;4998155;28;20211;-71
2023/01/13 01:49:57;;;;;;;2.30;1.73;;;;;;;4.77;100.00;96633.47;5036048;28;20657;-72
2023/01/13 01:52:29;;;;;;;2.20;1.53;;;;;;;4.74;100.00;96623.28;5041250;28;20725;-73
2023/01/13 01:55:01;;;;;;;2.33;1.67;;;;;;;4.69;100.00;96621.13;5038239;28;20879;-73
2023/01/13 01:57:33;;;;;;;2.97;1.50;;;;;;;4.63;100.00;96616.53;5042624;28;20745;-70
2023/01/13 02:00:01;;;;;;;1.63;1.53;;;;;;;4.70;100.00;96619.31;5038569;28;20234;-74
2023/01/13 02:02:29;;;;;;;2.20;1.60;;;;;;;4.69;100.00;96623.75;4998301;28;20230;-71
2023/01/13 02:04:57;;;;;;;1.73;1.63;;;;;;;4.74;100.00;96618.03;5046851;28;20294;-72
2023/01/13 02:07:27;;;;;;;1.33;1.33;;;;;;;4.78;100.00;96611.47;5040237;28;20207;-72
2023/01/13 02:09:56;;;;;;;3.90;1.80;;;;;;;4.80;100.00;96611.28;5043875;28;20364;-74
2023/01/13 02:12:30;;;;;;;1.40;1.30;;;;;;;4.72;100.00;96605.06;5048120;28;20399;-70
2023/01/13 02:15:01;;;;;;;1.40;1.30;;;;;;;4.61;100.00;96608.81;5041270;28;20408;-73
2023/01/13 02:17:40;;;;;;;1.83;1.13;;;;;;;4.60;100.00;96608.97;5032768;28;20203;-73
2023/01/13 02:20:30;;;;;;;1.60;1.50;;;;;;;4.59;100.00;96613.38;5037229;28;20231;-72
2023/01/13 02:26:29;;;;;;;2.00;1.30;;;;;;;4.64;100.00;96597.97;5008315;28;20220;-72
2023/01/13 02:32:00;;;;;;;2.73;2.03;;;;;;;4.67;100.00;96596.00;5046892;28;20222;-71
2023/01/13 02:34:33;;;;;;;1.57;1.47;;;;;;;4.64;100.00;96589.31;5037073;28;20633;-70
2023/01/13 02:37:04;;;;;;;1.80;1.70;;;;;;;4.60;100.00;96588.78;4995261;28;20212;-72
2023/01/13 02:39:34;;;;;;;1.80;1.70;;;;;;;4.62;100.00;96586.03;5034649;28;20245;-71
2023/01/13 02:44:56;;;;;;;3.27;1.50;;;;;;;4.63;100.00;96585.84;5028998;28;20226;-74
2023/01/13 02:47:26;;;;;;;3.07;1.67;;;;;;;4.64;100.00;96586.69;5044350;28;20207;-70
2023/01/13 02:49:56;;;;;;;1.87;1.70;;;;;;;4.70;100.00;96590.44;5046887;28;20234;-71
2023/01/13 02:52:29;;;;;;;1.40;1.40;;;;;;;4.76;100.00;96580.13;5005123;28;20210;-71
2023/01/13 02:55:00;;;;;;;1.90;1.57;;;;;;;4.68;100.00;96574.88;5044510;28;20233;-73
2023/01/13 02:57:28;;;;;;;3.57;1.57;;;;;;;4.67;100.00;96569.78;5039416;28;20702;-72
2023/01/13 02:59:56;;;;;;;2.03;1.40;;;;;;;4.71;100.00;96579.78;5034098;28;20234;-73
2023/01/13 03:02:26;;;;;;;1.40;1.27;;;;;;;4.71;100.00;96573.72;5043953;28;20279;-73
2023/01/13 03:04:56;;;;;;;3.43;1.33;;;;;;;4.74;100.00;96570.78;5048146;28;20215;-72
2023/01/13 03:07:48;;;;;;;2.00;1.37;;;;;;;4.78;100.00;96574.72;5008185;28;20236;-71
2023/01/13 03:10:25;;;;;;;3.07;1.47;;;;;;;4.76;100.00;96581.94;5041013;28;20234;-73
2023/01/13 03:13:00;;;;;;;3.23;2.10;;;;;;;4.78;100.00;96575.53;5045606;28;20217;-74
2023/01/13 03:15:39;;;;;;;1.53;1.43;;;;;;;4.85;100.00;96577.50;5023348;28;20206;-71
2023/01/13 03:18:17;;;;;;;1.67;1.20;;;;;;;4.86;100.00;96572.09;5037312;28;20211;-73
2023/01/13 03:20:52;;;;;;;1.20;1.20;;;;;;;4.86;100.00;96577.34;5041911;28;21465;-73
2023/01/13 03:23:25;;;;;;;1.60;1.50;;;;;;;4.81;100.00;96576.19;5013787;28;20226;-72
2023/01/13 03:26:00;;;;;;;1.33;1.33;;;;;;;4.84;100.00;96571.44;5040016;28;20210;-73
2023/01/13 03:28:30;;;;;;;4.77;1.40;;;;;;;5.01;100.00;96569.66;5035697;28;20566;-72
2023/01/13 03:31:02;;;;;;;1.70;1.60;;;;;;;5.04;100.00;96569.31;5041116;28;20223;-73
2023/01/13 03:33:34;;;;;;;1.60;1.30;;;;;;;5.07;100.00;96560.28;5021436;28;20199;-71
2023/01/13 03:36:04;;;;;;;1.30;1.20;;;;;;;5.12;100.00;96562.44;5043574;28;20207;-71
2023/01/13 03:38:34;;;;;;;2.27;1.60;;;;;;;4.99;100.00;96549.78;5034200;28;20382;-73
2023/01/13 03:41:06;;;;;;;1.47;1.33;;;;;;;4.95;100.00;96559.81;4994271;28;20706;-74
2023/01/13 03:46:28;;;;;;;1.73;1.63;;;;;;;4.95;100.00;96561.59;5035426;28;20211;-71
2023/01/13 03:48:58;;;;;;;1.90;1.17;;;;;;;5.00;100.00;96562.75;5019997;28;20207;-71
2023/01/13 03:51:28;;;;;;;2.87;2.67;;;;;;;5.07;100.00;96561.13;5037713;28;20200;-73
2023/01/13 03:53:58;;;;;;;3.10;1.53;;;;;;;5.06;100.00;96556.84;5025380;28;20706;-72
2023/01/13 03:56:29;;;;;;;1.50;1.40;;;;;;;5.07;100.00;96553.25;4996542;28;20217;-72
2023/01/13 03:58:57;;;;;;;2.23;1.30;;;;;;;5.21;100.00;96556.19;5017256;28;20873;-70
2023/01/13 04:01:27;;;;;;;1.30;1.17;;;;;;;5.16;100.00;96547.97;5040112;28;20218;-71
2023/01/13 04:04:00;;;;;;;1.50;1.40;;;;;;;5.30;100.00;96554.38;5034088;28;20425;-73
2023/01/13 04:06:47;;;;;;;1.43;1.27;;;;;;;5.33;100.00;96559.28;5014356;28;20338;-71
2023/01/13 04:09:19;;;;;;;1.40;1.30;;;;;;;5.33;100.00;96549.63;5033837;28;20223;-72
2023/01/13 04:11:53;;;;;;;1.60;1.50;;;;;;;5.39;100.00;96557.81;4995082;28;20494;-71
2023/01/13 04:14:22;;;;;;;3.30;1.37;;;;;;;5.39;100.00;96550.75;5020098;28;20374;-73
2023/01/13 04:16:49;;;;;;;1.53;1.40;;;;;;;5.34;100.00;96545.16;5048282;28;20208;-73
2023/01/13 04:19:18;;;;;;;1.87;1.20;;;;;;;5.35;100.00;96539.75;5005303;28;20227;-71
2023/01/13 04:21:46;;;;;;;2.07;1.30;;;;;;;5.39;100.00;96542.06;5037630;28;20203;-72
2023/01/13 04:24:13;;;;;;;1.30;1.20;;;;;;;5.30;100.00;96528.94;5039443;28;20215;-71
2023/01/13 04:26:41;;;;;;;1.73;1.43;;;;;;;5.47;100.00;96542.84;5003578;28;20219;-69
2023/01/13 04:29:08;;;;;;;2.50;1.90;;;;;;;5.45;100.00;96547.44;4991014;28;20230;-71
2023/01/13 04:31:37;;;;;;;1.57;1.47;;;;;;;5.49;100.00;96542.69;5041941;28;20203;-69
2023/01/13 04:34:04;;;;;;;1.50;1.40;;;;;;;5.52;100.00;96538.91;5042408;28;20195;-73
2023/01/13 04:36:34;;;;;;;2.07;1.87;;;;;;;5.51;100.00;96538.06;5041706;28;20210;-70
2023/01/13 04:39:02;;;;;;;1.47;1.37;;;;;;;5.58;99.59;96541.66;5042795;28;20447;-70
2023/01/13 04:41:56;;;;;;;1.20;1.20;;;;;;;5.63;99.11;96535.91;4998507;28;20207;-71
2023/01/13 04:44:18;;;;;;;1.53;1.30;;;;;;;5.62;98.54;96536.91;4984758;28;20234;-72
2023/01/13 04:46:45;;;;;;;2.13;1.13;;;;;;;5.60;99.05;96531.81;5029816;28;20433;-73
2023/01/13 04:49:13;;;;;;;1.50;1.20;;;;;;;5.67;98.09;96539.84;5034652;28;20235;-72
2023/01/13 04:51:42;;;;;;;2.27;1.27;;;;;;;5.68;97.83;96538.03;5030466;28;20418;-73
2023/01/13 04:54:10;;;;;;;1.23;1.13;;;;;;;5.60;98.12;96529.19;5046023;28;20202;-71
2023/01/13 04:56:38;;;;;;;2.10;1.60;;;;;;;5.58;98.88;96528.53;5034563;28;20715;-72
2023/01/13 04:59:05;;;;;;;1.27;1.27;;;;;;;5.62;98.58;96529.81;5004240;28;20239;-71
2023/01/13 05:01:33;;;;;;;2.40;1.40;;;;;;;5.69;97.31;96526.56;5024849;28;22918;-70
2023/01/13 05:04:01;;;;;;;1.37;1.27;;;;;;;5.69;97.48;96535.25;5045328;28;20759;-72
2023/01/13 05:06:29;;;;;;;3.17;1.07;;;;;;;5.72;97.88;96534.09;5039038;28;20911;-72
2023/01/13 05:08:58;;;;;;;2.13;1.20;;;;;;;5.74;97.35;96522.41;5043076;28;20199;-72
2023/01/13 05:17:04;;;;;;;2.67;1.30;;;;;;;5.75;96.71;96531.13;5036947;28;20214;-73
2023/01/13 05:19:34;;;;;;;2.10;1.43;;;;;;;5.75;96.19;96531.13;5029617;28;20298;-70
2023/01/13 05:27:52;;;;;;;1.40;1.30;;;;;;;5.75;95.83;96523.25;4980710;28;20780;-70
2023/01/13 05:30:21;;;;;;;1.27;1.13;;;;;;;5.78;96.10;96528.97;4930966;28;20675;-70
2023/01/13 05:32:49;;;;;;;2.17;1.60;;;;;;;5.77;95.83;96529.16;5007409;28;20202;-70
2023/01/13 05:35:16;;;;;;;2.40;1.40;;;;;;;5.75;95.24;96518.78;5026441;28;20207;-73
2023/01/13 05:37:45;;;;;;;1.00;1.00;;;;;;;5.75;95.80;96525.88;5040818;28;20605;-74
2023/01/13 05:43:20;;;;;;;3.20;1.50;;;;;;;5.85;93.66;96526.47;5045142;28;20210;-72
2023/01/13 05:45:50;;;;;;;2.30;1.50;;;;;;;5.84;93.95;96527.47;5002608;28;20246;-74
2023/01/13 05:48:18;;;;;;;2.63;1.37;;;;;;;5.83;93.37;96525.84;5033553;28;20492;-73
2023/01/13 05:50:48;;;;;;;1.60;1.50;;;;;;;5.90;92.26;96525.97;5023886;28;20230;-73
2023/01/13 05:53:16;;;;;;;1.27;1.27;;;;;;;5.91;93.28;96535.50;5042485;28;20199;-72
2023/01/13 05:55:45;;;;;;;0.97;0.97;;;;;;;5.90;92.67;96524.16;5039685;28;20210;-72
2023/01/13 05:58:14;;;;;;;1.63;1.20;;;;;;;5.92;91.98;96529.25;5043609;28;20206;-72
2023/01/13 06:00:42;;;;;;;1.40;1.20;;;;;;;5.92;91.81;96529.25;4995671;28;21968;-74
2023/01/13 06:03:10;;;;;;;0.97;0.97;;;;;;;5.89;92.20;96525.16;5042380;28;20582;-71
2023/01/13 06:05:37;;;;;;;3.27;1.03;;;;;;;5.88;92.96;96526.13;5026994;28;20464;-72
2023/01/13 06:08:06;;;;;;;3.53;1.50;;;;;;;5.92;92.35;96529.25;5039025;28;20217;-72
2023/01/13 06:10:35;;;;;;;2.10;1.53;;;;;;;5.94;91.83;96527.28;5034331;28;20326;-72
2023/01/13 06:13:04;;;;;;;1.90;1.50;;;;;;;6.01;90.91;96517.75;5045220;28;20216;-72
2023/01/13 06:15:32;;;;;;;0.80;0.80;;;;;;;5.94;91.46;96506.25;5037749;28;20191;-73
2023/01/13 06:18:02;;;;;;;2.13;1.70;;;;;;;5.94;91.86;96508.88;4996471;28;20920;-72
2023/01/13 06:20:29;;;;;;;1.90;1.77;;;;;;;5.91;92.43;96506.59;5027337;28;20264;-72
2023/01/13 06:22:57;;;;;;;2.80;2.60;;;;;;;5.88;92.25;96507.72;5023819;28;20217;-71
2023/01/13 06:25:38;;;;;;;1.47;1.37;;;;;;;5.93;91.72;96508.03;5038129;28;20227;-70
2023/01/13 06:28:07;;;;;;;1.13;1.13;;;;;;;5.91;91.84;96507.38;5039974;28;20206;-73
2023/01/13 06:30:38;;;;;;;6.40;1.83;;;;;;;5.96;91.13;96504.25;5036604;28;20233;-72
2023/01/13 06:33:09;;;;;;;2.00;1.90;;;;;;;5.93;91.64;96500.16;4998207;28;20277;-69
2023/01/13 06:35:39;;;;;;;2.47;2.33;;;;;;;5.96;91.20;96501.63;4992450;28;20207;-72
2023/01/13 06:38:09;;;;;;;3.30;1.37;;;;;;;6.02;90.57;96508.03;5038517;28;20208;-74
2023/01/13 06:40:36;;;;;;;1.40;1.30;;;;;;;6.08;89.84;96505.53;5037811;28;20222;-71
2023/01/13 06:43:15;;;;;;;1.63;1.53;;;;;;;6.01;91.18;96507.22;5025622;28;20206;-75
2023/01/13 06:45:48;;;;;;;1.50;1.30;;;;;;;6.07;90.14;96506.53;5042009;28;20686;-71
2023/01/13 06:48:16;;;;;;;1.53;1.43;;;;;;;5.96;91.16;96498.16;5007725;28;21014;-70
2023/01/13 06:50:44;;;;;;;1.50;1.40;;;;;;;5.91;91.43;96488.19;4997408;28;21828;-71
2023/01/13 06:53:11;;;;;;;2.03;1.70;;;;;;;5.92;91.41;96488.00;5033806;28;20714;-72
2023/01/13 06:55:39;;;;;;;1.60;1.50;;;;;;;6.02;91.44;96508.84;5043165;28;20202;-74
2023/01/13 06:58:07;;;;;;;1.70;1.60;;;;;;;6.05;91.17;96497.16;5043868;28;20202;-70
2023/01/13 07:00:35;;;;;;;1.30;1.30;;;;;;;6.01;91.34;96506.38;5040925;28;20226;-73
2023/01/13 07:03:10;;;;;;;1.53;1.33;;;;;;;6.07;91.47;96506.53;5022695;28;20302;-72
2023/01/13 07:05:38;;;;;;;1.37;1.30;;;;;;;6.06;90.86;96502.25;4975069;28;20241;-74
2023/01/13 07:08:06;;;;;;;2.43;1.73;;;;;;;6.06;91.85;96498.78;5034896;28;20695;-72
2023/01/13 07:10:34;;;;;;;2.57;1.33;;;;;;;6.13;90.91;96496.31;5042872;28;20237;-71
2023/01/13 07:15:56;;;;;;;1.93;1.30;;;;;;;6.31;89.17;96507.41;5039915;28;20199;-72
2023/01/13 07:18:26;;;;;;;1.37;1.13;;;;;;;6.30;89.42;96505.75;5027793;28;20206;-73
2023/01/13 07:20:55;;;;;;;2.03;1.37;;;;;;;6.22;90.21;96503.97;5004993;28;20226;-74
2023/01/13 07:23:23;;;;;;;1.97;1.50;;;;;;;6.22;90.31;96509.25;5032439;28;20244;-72
2023/01/13 07:25:51;;;;;;;1.50;1.40;;;;;;;6.15;89.72;96497.78;5036084;28;20231;-71
2023/01/13 07:28:18;;;;;;;1.47;1.37;;;;;;;6.27;89.57;96510.53;5043171;28;20203;-73
2023/01/13 07:30:46;;;;;;;2.50;1.83;;;;;;;6.26;89.05;96509.72;5033742;28;20222;-73
2023/01/13 07:33:13;;;;;;;2.23;1.30;;;;;;;6.27;88.88;96511.38;5029588;28;20343;-72
2023/01/13 07:35:42;;;;;;;2.00;1.17;;;;;;;6.20;89.90;96503.34;5026612;28;20207;-70
2023/01/13 07:38:10;;;;;;;1.20;1.20;;;;;;;6.13;89.98;96505.03;4991698;28;20607;-74
2023/01/13 07:40:39;;;;;;;1.23;1.13;;;;;;;6.18;89.83;96507.13;5037687;28;20238;-71
2023/01/13 07:45:55;;;;;;;1.00;1.00;;;;;;;6.22;90.45;96513.69;5036556;28;20222;-73
2023/01/13 07:48:23;;;;;;;1.03;1.03;;;;;;;6.30;89.79;96518.09;5033917;28;20199;-71
2023/01/13 07:50:52;;;;;;;1.57;1.47;;;;;;;6.30;89.00;96508.38;5010376;28;20235;-71
2023/01/13 07:53:19;;;;;;;3.13;1.33;;;;;;;6.33;89.03;96505.41;4995476;28;20897;-71
2023/01/13 07:55:47;;;;;;;1.60;1.50;;;;;;;6.32;89.12;96506.41;5039800;28;20210;-73
2023/01/13 07:58:15;;;;;;;1.30;1.20;;;;;;;6.34;89.84;96501.78;5042820;28;20211;-73
2023/01/13 08:00:42;;;;;;;1.47;1.47;;;;;;;6.23;90.36;96494.25;5039829;28;20227;-70
2023/01/13 08:03:10;;;;;;;1.77;1.67;;;;;;;6.42;89.75;96510.63;5045092;28;20554;-73
2023/01/13 08:05:37;;;;;;;1.70;1.60;;;;;;;6.46;88.97;96511.91;5028445;28;20229;-71
2023/01/13 08:08:07;;;;;;;1.30;1.30;;;;;;;6.48;88.87;96515.19;4981002;28;20352;-70
2023/01/13 08:10:34;;;;;;;1.60;1.50;;;;;;;6.55;89.14;96512.69;5046708;28;20227;-72
2023/01/13 08:13:20;;;;;;;2.77;1.97;;;;;;;6.56;89.69;96516.94;5043016;28;20226;-69
2023/01/13 08:15:49;;;;;;;2.23;1.87;;;;;;;6.58;88.99;96528.13;5042546;28;20199;-70
2023/01/13 08:18:19;;;;;;;1.73;1.63;;;;;;;6.68;88.60;96523.44;5049146;28;20381;-72
2023/01/13 08:20:48;;;;;;;1.63;1.43;;;;;;;6.73;88.45;96522.91;5030186;28;20268;-70
2023/01/13 08:23:18;;;;;;;5.50;1.50;;;;;;;6.73;88.68;96521.09;4982596;28;22302;-72
2023/01/13 08:25:46;;;;;;;1.53;1.17;;;;;;;6.81;87.80;96523.66;5045620;28;20225;-72
2023/01/13 08:28:15;;;;;;;4.27;3.03;;;;;;;6.89;87.55;96535.16;5044775;28;20433;-70
2023/01/13 08:30:43;;;;;;;5.53;4.93;;;;;;;6.89;87.79;96535.94;5048109;28;20257;-71
2023/01/13 08:33:11;;;;;;;1.07;1.07;;;;;;;7.00;87.31;96525.97;5037503;28;20199;-70
2023/01/13 08:35:40;;;;;;;2.07;1.10;;;;;;;6.99;87.61;96526.97;5035395;28;20214;-69
2023/01/13 08:38:08;;;;;;;1.17;1.17;;;;;;;7.00;87.28;96531.25;5023716;28;21331;-71
2023/01/13 08:40:39;;;;;;;0.80;0.80;;;;;;;6.94;87.80;96524.91;5003844;28;20249;-70
2023/01/13 08:43:06;;;;;;;1.40;1.40;;;;;;;6.99;87.80;96529.59;4987981;28;20736;-72
2023/01/13 08:45:34;;;;;;;2.40;1.10;;;;;;;7.00;88.07;96525.97;5024089;28;20211;-73
2023/01/13 08:48:02;;;;;;;3.10;1.07;;;;;;;7.03;87.32;96523.81;5044184;28;20377;-74
2023/01/13 08:50:30;;;;;;;1.20;1.20;;;;;;;6.89;88.49;96508.81;5026822;28;20231;-72
2023/01/13 08:52:58;;;;;;;1.87;1.77;;;;;;;6.98;88.77;96520.06;5033289;28;20408;-72
2023/01/13 08:55:26;;;;;;;0.97;0.97;;;;;;;7.07;87.42;96522.47;5041277;28;20200;-72
2023/01/13 08:57:55;;;;;;;2.03;1.83;;;;;;;7.04;87.53;96527.28;4996262;28;20596;-72
2023/01/13 09:00:42;;;;;;;1.47;1.37;;;;;;;7.00;88.36;96520.72;5037987;28;20215;-70
2023/01/13 09:03:10;;;;;;;1.30;1.00;;;;;;;7.01;88.46;96522.34;5045859;28;20210;-71
2023/01/13 09:05:37;;;;;;;1.33;0.80;;;;;;;7.05;87.98;96524.47;5039304;28;20203;-71
2023/01/13 09:08:05;;;;;;;1.10;1.10;;;;;;;7.06;87.87;96526.09;5019681;28;20225;-71
2023/01/13 09:10:34;;;;;;;1.53;1.03;;;;;;;7.00;88.80;96539.97;5043473;28;20219;-70
2023/01/13 09:13:11;;;;;;;1.00;1.00;;;;;;;7.05;88.20;96536.84;5038745;28;20215;-73
2023/01/13 09:15:39;;;;;;;1.10;1.00;;;;;;;7.07;87.81;96538.28;4997490;28;20218;-70
2023/01/13 09:18:07;;;;;;;1.00;0.97;;;;;;;7.07;88.63;96542.75;5046656;28;20286;-71
2023/01/13 09:20:34;;;;;;;1.20;1.10;;;;;;;7.16;87.75;96539.03;5037637;28;20257;-71
2023/01/13 09:23:02;;;;;;;1.47;1.10;;;;;;;7.13;88.12;96538.56;5021278;28;20200;-70
2023/01/13 09:25:30;;;;;;;1.17;1.17;;;;;;;7.13;88.34;96535.91;5037163;28;20206;-72
2023/01/13 09:27:57;;;;;;;8.50;7.30;;;;;;;7.25;87.49;96534.50;5044601;28;20219;-72
2023/01/13 09:30:26;;;;;;;1.33;1.30;;;;;;;7.17;88.56;96539.84;5003502;28;20226;-71
2023/01/13 09:34:58;;;;;;;1.47;1.03;;;;;;;7.21;88.03;96534.03;5039993;28;20682;-70
2023/01/13 09:35:44;;;;;;;2.30;1.80;;;;;;;7.21;88.75;96538.50;5040658;28;20200;-72
2023/01/13 09:38:11;;;;;;;4.20;2.40;;;;;;;7.22;89.17;96540.94;5040197;28;20199;-73
2023/01/13 09:40:40;;;;;;;4.63;1.80;;;;;;;7.22;89.21;96540.94;5032517;28;20812;-72
2023/01/13 09:46:42;;;;;;;1.10;1.10;;;;;;;7.28;89.24;96542.06;5006789;28;20215;-71
2023/01/13 09:49:02;;;;;;;1.23;1.13;;;;;;;7.32;90.01;96545.13;5038021;28;20244;-71
2023/01/13 09:51:32;;;;;;;1.87;1.20;;;;;;;7.38;89.99;96531.25;5039611;28;20302;-71
2023/01/13 09:54:03;;;;;;;1.47;1.37;;;;;;;7.46;89.95;96538.25;5029060;28;20215;-72
2023/01/13 09:56:30;;;;;;;0.87;0.83;;;;;;;7.42;90.01;96540.44;5037007;28;20683;-71
2023/01/13 09:58:58;;;;;;;1.07;1.00;;;;;;;7.42;90.41;96545.72;5040233;28;20290;-72
2023/01/13 10:01:29;;;;;;;1.33;1.23;;;;;;;7.42;92.01;96534.34;5010979;28;20202;-71
2023/01/13 10:04:03;;;;;;;1.57;1.07;;;;;;;7.36;92.06;96535.88;5035391;28;20747;-71
2023/01/13 10:06:34;;;;;;;2.43;1.40;;;;;;;7.37;92.88;96521.69;5021078;28;20519;-71
2023/01/13 10:09:02;;;;;;;1.10;1.10;;;;;;;7.44;92.70;96527.91;5022723;28;20262;-70
2023/01/13 10:14:26;;;;;;;2.27;2.07;;;;;;;7.60;92.45;96510.28;5024251;28;20209;-72
2023/01/13 10:17:01;;;;;;;2.50;2.07;;;;;;;7.77;91.18;96500.38;5000696;28;20797;-71
2023/01/13 10:19:31;;;;;;;1.53;1.43;;;;;;;7.80;90.67;96497.34;5042388;28;20772;-72
2023/01/13 10:22:15;;;;;;;1.10;0.90;;;;;;;7.96;90.14;96501.63;5035833;28;20937;-73
2023/01/13 10:25:19;;;;;;;1.00;1.00;;;;;;;8.21;88.81;96490.75;5026541;28;20561;-70
2023/01/13 10:27:48;;;;;;;0.80;0.80;;;;;;;8.32;88.27;96487.63;5042926;28;20734;-72
2023/01/13 10:30:22;;;;;;;2.20;0.90;;;;;;;8.26;87.76;96483.91;5044110;28;20215;-74
2023/01/13 10:32:54;;;;;;;1.37;1.07;;;;;;;8.30;87.33;96487.00;5014820;28;20421;-73
2023/01/13 10:35:54;;;;;;;1.67;1.63;;;;;;;8.30;87.79;96488.78;5047728;28;20203;-71
2023/01/13 10:38:24;;;;;;;1.40;1.30;;;;;;;8.32;86.27;96490.25;5037192;28;20191;-72
2023/01/13 10:40:54;;;;;;;1.00;1.00;;;;;;;8.21;87.39;96498.66;5017597;28;20506;-73
2023/01/13 10:43:22;;;;;;;1.07;1.07;;;;;;;8.21;86.75;96496.03;5046548;28;20214;-72
2023/01/13 10:45:58;;;;;;;1.10;1.00;;;;;;;8.17;87.58;96492.94;5000692;28;20699;-72
2023/01/13 10:48:37;;;;;;;1.30;1.07;;;;;;;8.10;87.27;96486.78;5041728;28;20316;-71
2023/01/13 10:51:18;;;;;;;1.67;1.10;;;;;;;8.13;87.88;96498.75;4995101;28;20235;-72
2023/01/13 10:53:51;;;;;;;1.37;1.27;;;;;;;8.05;87.77;96486.50;5035259;28;20407;-69
2023/01/13 10:56:20;;;;;;;0.93;0.93;;;;;;;8.05;88.24;96473.31;5031323;28;20211;-70
2023/01/13 10:58:48;;;;;;;1.10;1.10;;;;;;;8.00;88.68;96484.41;5044444;28;20200;-72
2023/01/13 11:01:25;;;;;;;0.97;0.97;;;;;;;8.08;89.23;96475.59;5023359;28;20230;-71
2023/01/13 11:03:55;;;;;;;1.33;1.07;;;;;;;8.03;88.29;96475.31;5044905;28;20206;-71
2023/01/13 11:06:25;;;;;;;1.27;1.17;;;;;;;7.96;88.60;96472.59;5005555;28;20907;-72
2023/01/13 11:08:56;;;;;;;1.30;1.30;;;;;;;8.02;88.36;96476.31;5040459;28;20574;-72
2023/01/13 11:11:27;;;;;;;1.90;1.00;;;;;;;8.00;88.74;96488.88;5043793;28;20519;-73
2023/01/13 11:16:44;;;;;;;1.80;1.47;;;;;;;7.96;90.76;96485.78;5032828;28;20214;-72
2023/01/13 11:19:22;;;;;;;0.90;0.90;;;;;;;8.00;92.57;96489.69;5040667;28;20958;-72
2023/01/13 11:21:54;;;;;;;1.17;1.17;;;;;;;7.85;94.09;96496.81;5041168;28;20207;-71
2023/01/13 11:24:29;;;;;;;0.90;0.90;;;;;;;7.78;97.67;96504.63;5002716;28;20210;-73
2023/01/13 11:26:59;;;;;;;0.90;0.90;;;;;;;7.63;100.00;96512.53;5045544;28;20206;-71
2023/01/13 11:29:30;;;;;;;0.93;0.93;;;;;;;7.53;100.00;96534.72;5038151;28;20222;-71
2023/01/13 11:32:03;;;;;;;3.30;0.93;;;;;;;7.24;100.00;96544.22;5022865;28;20508;-71
2023/01/13 11:34:35;;;;;;;1.07;1.07;;;;;;;6.95;100.00;96558.13;5043623;28;20296;-73
2023/01/13 11:37:10;;;;;;;1.17;1.07;;;;;;;6.56;100.00;96607.25;5022554;28;20694;-70
2023/01/13 11:39:45;;;;;;;0.70;0.60;;;;;;;6.05;100.00;96620.75;5041771;28;20223;-69
2023/01/13 11:42:22;;;;;;;4.70;0.63;;;;;;;5.70;100.00;96646.47;5045006;28;20778;-69
2023/01/13 11:44:58;;;;;;;0.90;0.90;;;;;;;5.47;100.00;96634.81;5032454;28;20674;-71
2023/01/13 11:47:27;;;;;;;1.17;1.17;;;;;;;5.42;100.00;96636.31;5026372;28;20409;-72
2023/01/13 11:49:56;;;;;;;1.17;0.70;;;;;;;5.35;100.00;96630.88;5050537;28;20218;-72
2023/01/13 11:52:29;;;;;;;1.17;1.10;;;;;;;5.33;100.00;96622.34;4995953;28;20503;-73
2023/01/13 11:55:06;;;;;;;1.57;1.23;;;;;;;5.39;100.00;96631.38;5048687;28;20203;-70
2023/01/13 11:57:55;;;;;;;1.03;0.90;;;;;;;5.49;100.00;96624.97;5039655;28;20210;-70
2023/01/13 12:00:32;;;;;;;0.83;0.83;;;;;;;5.48;100.00;96625.94;5031348;28;20866;-70
2023/01/13 12:03:16;;;;;;;0.63;0.63;;;;;;;5.46;100.00;96614.78;5018848;28;20396;-70
2023/01/13 12:05:57;;;;;;;2.20;1.00;;;;;;;5.66;100.00;96614.44;5031688;28;20203;-70
2023/01/13 12:08:41;;;;;;;0.87;0.87;;;;;;;5.70;100.00;96613.09;5000616;28;20427;-71
2023/01/13 12:11:14;;;;;;;1.60;1.00;;;;;;;5.54;100.00;96615.78;5044017;28;20660;-70
2023/01/13 12:13:53;;;;;;;0.90;0.90;;;;;;;5.65;100.00;96616.22;5025396;28;20234;-70
2023/01/13 12:16:23;;;;;;;1.43;0.70;;;;;;;5.80;100.00;96619.00;5048141;28;20206;-68
2023/01/13 12:19:20;;;;;;;1.27;0.70;;;;;;;5.77;100.00;96603.56;5010269;28;20206;-70
2023/01/13 12:22:09;;;;;;;1.38;1.27;;;;;;;5.72;100.00;96608.50;5040698;28;20442;-71
2023/01/13 12:24:41;;;;;;;1.30;1.20;;;;;;;5.78;100.00;96607.03;5002017;28;20776;-75
2023/01/13 12:27:13;;;;;;;1.87;1.70;;;;;;;5.82;100.00;96603.06;5040777;28;22082;-72
2023/01/13 12:29:41;;;;;;;2.47;2.00;;;;;;;5.77;100.00;96597.50;5030755;28;20245;-71
2023/01/13 12:32:13;;;;;;;1.83;1.60;;;;;;;5.97;100.00;96602.34;5041204;28;20199;-72
2023/01/13 12:34:51;;;;;;;2.73;2.00;;;;;;;5.79;100.00;96601.59;5033323;28;20206;-73
2023/01/13 12:37:26;;;;;;;2.00;1.57;;;;;;;5.88;100.00;96604.22;5046359;28;20209;-71
2023/01/13 12:40:04;;;;;;;2.20;1.93;;;;;;;5.94;100.00;96601.72;5002637;28;20719;-72
2023/01/13 12:45:25;;;;;;;1.40;1.30;;;;;;;5.92;100.00;96621.28;5016483;28;20408;-71